createdAt,value
2019-05-04T00:00:56.520Z,98182.58
2019-05-04T00:03:25.089Z,98183.75
2019-05-04T00:05:55.103Z,98175.61
2019-05-04T00:08:21.813Z,98171.38
2019-05-04T00:10:48.947Z,98160.10
2019-05-04T00:13:16.138Z,98159.81
2019-05-04T00:15:44.349Z,98188.57
2019-05-04T00:18:11.232Z,98140.48
2019-05-04T00:20:50.229Z,98128.61
2019-05-04T00:23:06.920Z,98128.88
2019-05-04T00:25:36.898Z,98121.88
2019-05-04T00:28:05.447Z,98114.31
2019-05-04T00:30:32.463Z,98112.19
2019-05-04T00:33:07.764Z,98112.67
2019-05-04T00:35:57.146Z,98112.84
2019-05-04T00:38:24.870Z,98100.58
2019-05-04T00:40:52.364Z,98095.42
2019-05-04T00:43:19.147Z,98092.64
2019-05-04T00:45:45.927Z,98079.08
2019-05-04T00:48:12.689Z,98082.45
2019-05-04T00:50:39.453Z,98079.45
2019-05-04T00:53:06.215Z,98074.66
2019-05-04T00:55:51.485Z,98065.05
2019-05-04T00:58:21.027Z,98072.42
2019-05-04T01:00:55.183Z,98068.26
2019-05-04T01:03:22.065Z,98062.34
2019-05-04T01:05:49.473Z,98073.95
2019-05-04T01:08:16.203Z,98045.33
2019-05-04T01:10:44.783Z,98045.56
2019-05-04T01:13:11.585Z,98032.91
2019-05-04T01:15:38.325Z,98071.56
2019-05-04T01:18:06.219Z,98013.64
2019-05-04T01:20:33.111Z,98008.29
2019-05-04T01:22:59.851Z,98009.71
2019-05-04T01:25:26.677Z,98010.47
2019-05-04T01:27:54.632Z,98017.61
2019-05-04T01:30:21.543Z,98016.75
2019-05-04T01:32:48.276Z,98019.89
2019-05-04T01:35:15.488Z,98020.05
2019-05-04T01:38:04.357Z,98016.45
2019-05-04T01:40:50.060Z,98005.22
2019-05-04T01:43:20.277Z,98007.76
2019-05-04T01:45:55.251Z,98010.08
2019-05-04T01:48:24.351Z,98006.67
2019-05-04T01:50:51.185Z,98001.81
2019-05-04T01:53:26.657Z,98004.55
2019-05-04T01:56:09.216Z,97999.67
2019-05-04T01:58:35.893Z,97993.69
2019-05-04T02:01:02.663Z,97992.23
2019-05-04T02:03:29.406Z,97994.88
2019-05-04T02:05:56.526Z,97989.29
2019-05-04T02:08:24.672Z,97992.92
2019-05-04T02:10:51.631Z,97982.79
2019-05-04T02:13:18.357Z,97985.13
2019-05-04T02:15:45.096Z,98027.28
2019-05-04T02:18:11.855Z,97980.25
2019-05-04T02:20:40.761Z,97978.86
2019-05-04T02:23:07.592Z,97968.85
2019-05-04T02:25:55.020Z,97965.68
2019-05-04T02:28:47.159Z,97960.92
2019-05-04T02:31:16.468Z,97953.09
2019-05-04T02:33:42.529Z,97938.89
2019-05-04T02:36:09.477Z,97939.69
2019-05-04T02:38:36.478Z,97931.54
2019-05-04T02:41:31.134Z,97926.18
2019-05-04T02:43:57.874Z,97928.06
2019-05-04T02:46:25.321Z,97924.70
2019-05-04T02:48:56.462Z,97913.25
2019-05-04T02:51:25.507Z,97913.97
2019-05-04T02:53:55.364Z,97911.33
2019-05-04T02:56:21.393Z,97910.64
2019-05-04T02:58:48.151Z,97906.48
2019-05-04T03:01:16.370Z,97905.66
2019-05-04T03:03:45.819Z,97900.57
2019-05-04T03:06:15.291Z,97904.72
2019-05-04T03:08:41.109Z,97896.32
2019-05-04T03:11:08.367Z,97894.77
2019-05-04T03:13:35.772Z,97893.37
2019-05-04T03:16:05.289Z,97883.07
2019-05-04T03:18:38.197Z,97876.39
2019-05-04T03:21:30.759Z,97874.48
2019-05-04T03:23:58.083Z,97877.66
2019-05-04T03:26:26.296Z,97868.27
2019-05-04T03:28:55.246Z,97869.47
2019-05-04T03:31:27.021Z,97862.38
2019-05-04T03:33:50.711Z,97871.35
2019-05-04T03:36:23.930Z,97862.57
2019-05-04T03:38:53.854Z,97863.96
2019-05-04T03:41:16.646Z,97861.32
2019-05-04T03:43:45.350Z,97863.36
2019-05-04T03:46:40.402Z,97856.23
2019-05-04T03:49:16.416Z,97864.15
2019-05-04T03:51:46.310Z,97855.89
2019-05-04T03:54:11.751Z,97851.93
2019-05-04T03:56:38.541Z,97848.73
2019-05-04T03:59:05.295Z,97846.49
2019-05-04T04:01:35.275Z,97848.46
2019-05-04T04:04:05.303Z,97846.05
2019-05-04T04:06:35.974Z,97846.16
2019-05-04T04:09:08.540Z,97854.02
2019-05-04T04:11:29.509Z,97850.20
2019-05-04T04:13:56.280Z,97844.66
2019-05-04T04:16:45.532Z,97844.16
2019-05-04T04:19:14.998Z,97845.45
2019-05-04T04:21:40.881Z,97834.50
2019-05-04T04:24:07.603Z,97835.98
2019-05-04T04:26:45.823Z,97828.80
2019-05-04T04:29:17.899Z,97832.80
2019-05-04T04:31:45.876Z,97821.83
2019-05-04T04:34:15.441Z,97824.47
2019-05-04T04:36:41.409Z,97817.70
2019-05-04T04:39:24.095Z,97824.04
2019-05-04T04:41:36.830Z,97815.03
2019-05-04T04:44:06.077Z,97817.48
2019-05-04T04:46:32.222Z,97826.45
2019-05-04T04:48:59.158Z,97835.96
2019-05-04T04:51:26.757Z,97823.85
2019-05-04T04:53:56.310Z,97825.77
2019-05-04T04:56:25.785Z,97823.13
2019-05-04T04:58:55.681Z,97824.06
2019-05-04T05:01:25.734Z,97832.44
2019-05-04T05:03:55.406Z,97828.11
2019-05-04T05:06:21.686Z,97834.15
2019-05-04T05:08:48.475Z,97828.52
2019-05-04T05:11:15.331Z,97831.26
2019-05-04T05:13:42.095Z,97830.86
2019-05-04T05:16:09.207Z,97821.72
2019-05-04T05:18:36.092Z,97836.20
2019-05-04T05:21:22.458Z,97840.99
2019-05-04T05:23:49.325Z,97846.77
2019-05-04T05:26:17.960Z,97835.75
2019-05-04T05:28:44.999Z,97842.58
2019-05-04T05:31:16.000Z,97838.00
2019-05-04T05:33:51.306Z,97840.93
2019-05-04T05:36:19.781Z,97841.42
2019-05-04T05:38:55.908Z,97848.02
2019-05-04T05:41:24.122Z,97838.06
2019-05-04T05:43:57.447Z,97891.50
2019-05-04T05:46:37.901Z,97891.99
2019-05-04T05:49:35.194Z,97927.91
2019-05-04T05:52:20.238Z,97937.66
2019-05-04T05:55:19.817Z,97951.05
2019-05-04T05:57:59.702Z,97949.22
2019-05-04T06:00:49.042Z,97961.95
2019-05-04T06:03:32.092Z,97962.09
2019-05-04T06:05:57.206Z,97970.52
2019-05-04T06:08:25.149Z,98000.14
2019-05-04T06:10:56.289Z,98000.14
2019-05-04T06:13:39.921Z,98019.77
2019-05-04T06:16:26.324Z,98028.23
2019-05-04T06:19:01.348Z,98029.05
2019-05-04T06:21:54.565Z,98029.05
2019-05-04T06:24:37.058Z,98036.02
2019-05-04T06:27:11.854Z,98036.02
2019-05-04T06:29:48.223Z,98039.02
2019-05-04T06:32:24.885Z,98037.83
2019-05-04T06:35:04.614Z,98047.27
2019-05-04T06:37:59.490Z,98048.06
2019-05-04T06:40:44.901Z,98053.66
2019-05-04T06:43:15.946Z,98048.96
2019-05-04T06:45:55.206Z,98043.98
2019-05-04T06:48:30.869Z,98055.20
2019-05-04T06:51:00.044Z,98059.37
2019-05-04T06:53:38.760Z,98067.01
2019-05-04T06:56:19.064Z,98067.01
2019-05-04T06:58:42.169Z,98067.06
2019-05-04T07:01:16.855Z,98070.72
2019-05-04T07:03:44.410Z,98076.14
2019-05-04T07:06:11.164Z,98077.70
2019-05-04T07:08:40.253Z,98086.56
2019-05-04T07:11:25.605Z,98090.09
2019-05-04T07:13:35.552Z,98092.26
2019-05-04T07:16:02.290Z,98098.96
2019-05-04T07:18:29.726Z,98107.69
2019-05-04T07:20:57.838Z,98106.86
2019-05-04T07:23:24.865Z,98107.89
2019-05-04T07:25:57.753Z,98107.89
2019-05-04T07:28:20.314Z,98102.52
2019-05-04T07:30:51.008Z,98103.65
2019-05-04T07:33:24.922Z,98109.99
2019-05-04T07:36:01.403Z,98103.87
2019-05-04T07:38:47.521Z,98111.82
2019-05-04T07:41:10.464Z,98111.82
2019-05-04T07:43:34.336Z,98105.92
2019-05-04T07:46:05.179Z,98113.75
2019-05-04T07:48:29.001Z,98113.75
2019-05-04T07:50:55.741Z,98109.88
2019-05-04T07:53:22.521Z,98109.77
2019-05-04T07:55:49.557Z,98111.28
2019-05-04T07:58:16.322Z,98111.28
2019-05-04T08:00:48.153Z,98118.70
2019-05-04T08:03:12.124Z,98111.37
2019-05-04T08:05:43.964Z,98101.81
2019-05-04T08:08:15.555Z,98101.27
2019-05-04T08:10:39.639Z,98107.17
2019-05-04T08:13:07.515Z,98120.45
2019-05-04T08:15:38.144Z,98122.43
2019-05-04T08:18:06.032Z,98115.84
2019-05-04T08:20:32.204Z,98133.83
2019-05-04T08:23:01.338Z,98131.68
2019-05-04T08:25:27.755Z,98131.68
2019-05-04T08:27:54.913Z,98123.70
2019-05-04T08:30:21.882Z,98137.12
2019-05-04T08:32:49.959Z,98141.48
2019-05-04T08:35:20.283Z,98144.31
2019-05-04T08:37:45.586Z,98144.31
2019-05-04T08:40:12.460Z,98144.03
2019-05-04T08:42:44.619Z,98145.80
2019-05-04T08:45:15.243Z,98142.48
2019-05-04T08:47:58.383Z,98152.17
2019-05-04T08:50:25.406Z,98152.17
2019-05-04T08:53:01.616Z,98151.45
2019-05-04T08:55:37.500Z,98151.16
2019-05-04T08:58:14.791Z,98147.23
2019-05-04T09:00:45.037Z,98147.23
2019-05-04T09:03:27.223Z,98149.60
2019-05-04T09:06:11.828Z,98149.60
2019-05-04T09:08:22.715Z,98147.36
2019-05-04T09:11:06.419Z,98147.13
2019-05-04T09:13:21.905Z,98149.20
2019-05-04T09:15:55.357Z,98163.87
2019-05-04T09:18:19.341Z,98158.61
2019-05-04T09:20:46.353Z,98165.05
2019-05-04T09:23:14.454Z,98164.91
2019-05-04T09:25:45.118Z,98156.84
2019-05-04T09:28:13.607Z,98144.11
2019-05-04T09:30:40.717Z,98154.48
2019-05-04T09:33:09.507Z,98154.48
2019-05-04T09:35:48.365Z,98154.85
2019-05-04T09:38:05.388Z,98154.98
2019-05-04T09:40:32.229Z,98154.98
2019-05-04T09:43:11.803Z,98158.98
2019-05-04T09:45:30.553Z,98151.31
2019-05-04T09:47:59.651Z,98163.27
2019-05-04T09:50:26.550Z,98164.36
2019-05-04T09:53:17.482Z,98167.78
2019-05-04T09:55:45.045Z,98172.67
2019-05-04T09:58:26.536Z,98169.40
2019-05-04T10:00:54.622Z,98169.40
2019-05-04T10:03:21.038Z,98183.92
2019-05-04T10:05:49.887Z,98180.95
2019-05-04T10:08:16.602Z,98183.98
2019-05-04T10:10:45.551Z,98186.56
2019-05-04T10:13:35.442Z,98186.56
2019-05-04T10:16:30.888Z,98197.10
2019-05-04T10:19:00.461Z,98198.33
2019-05-04T10:21:27.184Z,98198.33
2019-05-04T10:23:55.292Z,98195.98
2019-05-04T10:26:58.759Z,98198.06
2019-05-04T10:29:28.944Z,98186.25
2019-05-04T10:31:55.785Z,98186.25
2019-05-04T10:34:24.107Z,98195.11
2019-05-04T10:36:55.151Z,98195.11
2019-05-04T10:39:21.722Z,98197.51
2019-05-04T10:41:51.098Z,98197.51
2019-05-04T10:44:19.130Z,98192.59
2019-05-04T10:46:45.844Z,98187.63
2019-05-04T10:49:14.600Z,98193.55
2019-05-04T10:51:41.234Z,98181.75
2019-05-04T10:54:07.967Z,98181.75
2019-05-04T10:56:37.016Z,98190.86
2019-05-04T10:59:06.021Z,98197.77
2019-05-04T11:01:32.735Z,98201.64
2019-05-04T11:03:59.472Z,98193.87
2019-05-04T11:06:26.660Z,98191.66
2019-05-04T11:08:54.407Z,98192.28
2019-05-04T11:11:23.623Z,98188.27
2019-05-04T11:14:02.291Z,98196.77
2019-05-04T11:16:21.253Z,98202.34
2019-05-04T11:18:48.341Z,98194.53
2019-05-04T11:21:15.045Z,98196.09
2019-05-04T11:23:41.804Z,98197.66
2019-05-04T11:26:21.349Z,98203.91
2019-05-04T11:28:51.056Z,98195.54
2019-05-04T11:31:17.775Z,98207.02
2019-05-04T11:33:44.640Z,98199.19
2019-05-04T11:36:11.351Z,98201.87
2019-05-04T11:38:38.100Z,98196.63
2019-05-04T11:41:05.390Z,98193.77
2019-05-04T11:43:32.377Z,98199.27
2019-05-04T11:46:01.346Z,98196.03
2019-05-04T11:48:28.078Z,98198.06
2019-05-04T11:50:54.892Z,98196.84
2019-05-04T11:53:21.635Z,98206.16
2019-05-04T11:55:48.337Z,98206.09
2019-05-04T11:58:15.393Z,98199.20
2019-05-04T12:00:45.155Z,98211.44
2019-05-04T12:03:11.858Z,98219.34
2019-05-04T12:05:46.928Z,98223.89
2019-05-04T12:08:34.658Z,98228.61
2019-05-04T12:11:01.583Z,98231.07
2019-05-04T12:13:28.319Z,98237.66
2019-05-04T12:15:55.155Z,98247.64
2019-05-04T12:18:21.972Z,98248.20
2019-05-04T12:20:48.710Z,98248.22
2019-05-04T12:23:15.443Z,98243.94
2019-05-04T12:25:42.486Z,98239.31
2019-05-04T12:28:09.229Z,98242.23
2019-05-04T12:30:36.098Z,98237.75
2019-05-04T12:33:04.904Z,98246.72
2019-05-04T12:35:31.483Z,98241.98
2019-05-04T12:37:58.214Z,98236.47
2019-05-04T12:40:24.927Z,98239.09
2019-05-04T12:42:55.168Z,98238.58
2019-05-04T12:45:21.923Z,98235.17
2019-05-04T12:47:48.636Z,98237.52
2019-05-04T12:50:15.593Z,98246.62
2019-05-04T12:52:44.795Z,98243.94
2019-05-04T12:55:11.268Z,98245.02
2019-05-04T12:57:38.001Z,98250.78
2019-05-04T13:00:05.325Z,98247.11
2019-05-04T13:02:34.254Z,98251.70
2019-05-04T13:05:09.318Z,98248.05
2019-05-04T13:07:36.011Z,98250.64
2019-05-04T13:10:07.761Z,98242.78
2019-05-04T13:12:34.386Z,98246.45
2019-05-04T13:15:01.108Z,98237.02
2019-05-04T13:17:47.472Z,98239.37
2019-05-04T13:20:18.672Z,98242.78
2019-05-04T13:22:47.912Z,98242.23
2019-05-04T13:25:15.001Z,98250.95
2019-05-04T13:27:42.214Z,98256.75
2019-05-04T13:30:08.976Z,98246.77
2019-05-04T13:32:35.685Z,98254.64
2019-05-04T13:35:02.451Z,98247.50
2019-05-04T13:37:29.505Z,98256.72
2019-05-04T13:39:56.228Z,98239.29
2019-05-04T13:42:24.792Z,98242.20
2019-05-04T13:44:51.649Z,98253.44
2019-05-04T13:47:21.743Z,98254.19
2019-05-04T13:49:47.433Z,98247.61
2019-05-04T13:52:15.207Z,98245.98
2019-05-04T13:55:04.651Z,98237.64
2019-05-04T13:57:34.534Z,98236.27
2019-05-04T14:00:19.849Z,98241.55
2019-05-04T14:03:12.247Z,98230.44
2019-05-04T14:05:39.061Z,98231.59
2019-05-04T14:08:05.768Z,98225.95
2019-05-04T14:10:32.767Z,98232.10
2019-05-04T14:12:59.786Z,98228.64
2019-05-04T14:15:31.380Z,98224.57
2019-05-04T14:17:55.133Z,98222.64
2019-05-04T14:20:22.218Z,98216.77
2019-05-04T14:22:48.990Z,98217.31
2019-05-04T14:25:18.429Z,98267.48
2019-05-04T14:27:45.293Z,98228.44
2019-05-04T14:30:14.374Z,98230.34
2019-05-04T14:32:41.765Z,98232.13
2019-05-04T14:35:08.747Z,98234.52
2019-05-04T14:37:35.472Z,98241.78
2019-05-04T14:40:10.592Z,98241.00
2019-05-04T14:42:32.051Z,98239.75
2019-05-04T14:45:26.299Z,98230.53
2019-05-04T14:48:11.211Z,98232.67
2019-05-04T14:50:37.949Z,98229.52
2019-05-04T14:53:04.861Z,98236.23
2019-05-04T14:55:31.671Z,98243.73
2019-05-04T14:58:01.511Z,98239.89
2019-05-04T15:00:28.377Z,98243.05
2019-05-04T15:02:55.214Z,98239.70
2019-05-04T15:05:22.010Z,98241.86
2019-05-04T15:07:51.493Z,98234.94
2019-05-04T15:10:18.563Z,98241.26
2019-05-04T15:12:45.260Z,98243.38
2019-05-04T15:15:13.595Z,98251.88
2019-05-04T15:17:41.185Z,98258.84
2019-05-04T15:20:18.347Z,98263.83
2019-05-04T15:22:45.141Z,98262.02
2019-05-04T15:25:11.979Z,98272.34
2019-05-04T15:27:38.732Z,98257.11
2019-05-04T15:30:05.695Z,98271.13
2019-05-04T15:32:34.828Z,98268.23
2019-05-04T15:35:01.151Z,98265.63
2019-05-04T15:37:27.832Z,98270.65
2019-05-04T15:39:55.561Z,98281.70
2019-05-04T15:42:22.263Z,98266.66
2019-05-04T15:44:48.948Z,98271.66
2019-05-04T15:47:15.898Z,98271.41
2019-05-04T15:49:44.772Z,98274.52
2019-05-04T15:52:18.847Z,98273.39
2019-05-04T15:54:58.341Z,98275.51
2019-05-04T15:57:45.547Z,98284.45
2019-05-04T16:00:19.885Z,98277.12
2019-05-04T16:02:46.570Z,98282.38
2019-05-04T16:05:15.462Z,98282.16
2019-05-04T16:07:44.695Z,98281.11
2019-05-04T16:10:11.224Z,98280.31
2019-05-04T16:12:38.437Z,98275.05
2019-05-04T16:15:05.690Z,98275.27
2019-05-04T16:17:34.182Z,98290.58
2019-05-04T16:20:01.198Z,98277.81
2019-05-04T16:22:29.387Z,98275.17
2019-05-04T16:24:56.115Z,98274.14
2019-05-04T16:27:24.732Z,98277.02
2019-05-04T16:29:51.471Z,98283.58
2019-05-04T16:32:18.146Z,98290.41
2019-05-04T16:34:46.227Z,98291.50
2019-05-04T16:37:15.050Z,98285.13
2019-05-04T16:39:45.122Z,98290.34
2019-05-04T16:42:12.000Z,98289.03
2019-05-04T16:44:44.994Z,98293.90
2019-05-04T16:47:11.523Z,98290.62
2019-05-04T16:49:38.242Z,98291.02
2019-05-04T16:52:35.042Z,98293.91
2019-05-04T16:55:05.190Z,98291.48
2019-05-04T16:57:32.053Z,98294.34
2019-05-04T16:59:59.175Z,98290.42
2019-05-04T17:02:34.741Z,98289.71
2019-05-04T17:05:05.638Z,98297.27
2019-05-04T17:07:32.388Z,98287.86
2019-05-04T17:10:00.136Z,98297.28
2019-05-04T17:12:27.406Z,98297.88
2019-05-04T17:14:55.001Z,98303.19
2019-05-04T17:17:22.442Z,98301.70
2019-05-04T17:19:49.158Z,98296.70
2019-05-04T17:22:16.376Z,98302.09
2019-05-04T17:24:57.395Z,98303.41
2019-05-04T17:27:44.535Z,98303.42
2019-05-04T17:30:17.496Z,98307.02
2019-05-04T17:32:44.410Z,98314.11
2019-05-04T17:35:11.826Z,98311.36
2019-05-04T17:37:38.510Z,98318.88
2019-05-04T17:40:05.425Z,98314.52
2019-05-04T17:42:36.212Z,98316.23
2019-05-04T17:45:06.164Z,98323.05
2019-05-04T17:47:35.043Z,98318.66
2019-05-04T17:50:04.597Z,98326.69
2019-05-04T17:52:35.203Z,98329.54
2019-05-04T17:55:04.201Z,98323.08
2019-05-04T17:57:30.993Z,98331.22
2019-05-04T18:00:30.006Z,98330.99
2019-05-04T18:02:58.980Z,98338.69
2019-05-04T18:05:25.706Z,98333.19
2019-05-04T18:07:52.432Z,98333.98
2019-05-04T18:10:19.392Z,98343.50
2019-05-04T18:13:05.556Z,98354.05
2019-05-04T18:15:54.700Z,98359.08
2019-05-04T18:18:55.875Z,98353.80
2019-05-04T18:21:24.263Z,98364.86
2019-05-04T18:23:50.998Z,98366.18
2019-05-04T18:26:19.986Z,98370.66
2019-05-04T18:28:46.694Z,98379.36
2019-05-04T18:31:15.115Z,98384.87
2019-05-04T18:33:41.889Z,98395.17
2019-05-04T18:36:08.828Z,98399.66
2019-05-04T18:38:35.503Z,98403.09
2019-05-04T18:41:02.518Z,98373.08
2019-05-04T18:43:47.408Z,98407.05
2019-05-04T18:46:34.342Z,98418.63
2019-05-04T18:49:05.235Z,98413.07
2019-05-04T18:51:32.012Z,98418.90
2019-05-04T18:53:58.710Z,98417.31
2019-05-04T18:56:25.445Z,98424.17
2019-05-04T18:58:52.119Z,98424.69
2019-05-04T19:01:18.970Z,98432.06
2019-05-04T19:03:45.672Z,98431.00
2019-05-04T19:06:35.266Z,98437.06
2019-05-04T19:09:02.468Z,98445.45
2019-05-04T19:11:29.186Z,98456.44
2019-05-04T19:13:55.912Z,98459.86
2019-05-04T19:16:22.598Z,98461.71
2019-05-04T19:18:49.332Z,98463.08
2019-05-04T19:21:16.719Z,98472.53
2019-05-04T19:23:46.630Z,98468.28
2019-05-04T19:26:14.816Z,98474.80
2019-05-04T19:28:42.411Z,98478.73
2019-05-04T19:31:09.423Z,98490.52
2019-05-04T19:33:38.406Z,98497.65
2019-05-04T19:36:06.059Z,98496.95
2019-05-04T19:38:34.729Z,98501.72
2019-05-04T19:41:01.483Z,98514.03
2019-05-04T19:43:54.839Z,98517.95
2019-05-04T19:46:37.279Z,98526.06
2019-05-04T19:49:07.371Z,98529.00
2019-05-04T19:51:34.567Z,98532.20
2019-05-04T19:54:01.346Z,98541.58
2019-05-04T19:56:28.093Z,98552.01
2019-05-04T19:58:54.822Z,98553.44
2019-05-04T20:01:21.590Z,98557.01
2019-05-04T20:03:48.288Z,98561.13
2019-05-04T20:06:15.007Z,98564.50
2019-05-04T20:08:48.270Z,98561.88
2019-05-04T20:11:22.666Z,98569.09
2019-05-04T20:13:49.386Z,98570.90
2019-05-04T20:16:16.482Z,98575.79
2019-05-04T20:18:44.557Z,98579.42
2019-05-04T20:21:11.412Z,98576.51
2019-05-04T20:23:40.020Z,98576.91
2019-05-04T20:26:06.898Z,98576.66
2019-05-04T20:28:34.637Z,98579.05
2019-05-04T20:31:01.486Z,98581.31
2019-05-04T20:33:28.568Z,98588.92
2019-05-04T20:35:55.644Z,98588.83
2019-05-04T20:38:24.568Z,98595.80
2019-05-04T20:40:51.095Z,98600.86
2019-05-04T20:43:17.951Z,98615.34
2019-05-04T20:46:19.348Z,98606.22
2019-05-04T20:49:01.555Z,98604.72
2019-05-04T20:51:28.349Z,98615.73
2019-05-04T20:54:00.999Z,98619.13
2019-05-04T20:56:28.107Z,98611.55
2019-05-04T20:58:54.841Z,98614.48
2019-05-04T21:01:24.652Z,98620.39
2019-05-04T21:04:10.867Z,98632.08
2019-05-04T21:07:06.011Z,98621.56
2019-05-04T21:09:35.542Z,98625.70
2019-05-04T21:12:02.281Z,98623.61
2019-05-04T21:14:29.384Z,98615.00
2019-05-04T21:17:04.893Z,98618.68
2019-05-04T21:19:49.647Z,98624.67
2019-05-04T21:22:16.403Z,98622.33
2019-05-04T21:24:45.533Z,98632.06
2019-05-04T21:27:11.756Z,98635.31
2019-05-04T21:29:38.525Z,98641.84
2019-05-04T21:32:05.269Z,98641.40
2019-05-04T21:34:32.007Z,98648.02
2019-05-04T21:36:58.747Z,98653.39
2019-05-04T21:39:25.850Z,98652.08
2019-05-04T21:41:52.623Z,98664.38
2019-05-04T21:44:25.802Z,98663.23
2019-05-04T21:47:15.546Z,98674.55
2019-05-04T21:50:04.593Z,98669.13
2019-05-04T21:52:31.846Z,98664.34
2019-05-04T21:54:58.635Z,98672.34
2019-05-04T21:57:25.365Z,98679.83
2019-05-04T21:59:52.539Z,98687.32
2019-05-04T22:02:34.851Z,98682.94
2019-05-04T22:05:04.494Z,98691.03
2019-05-04T22:07:31.475Z,98687.95
2019-05-04T22:09:58.237Z,98687.56
2019-05-04T22:12:24.955Z,98685.79
2019-05-04T22:14:51.697Z,98689.17
2019-05-04T22:17:18.411Z,98690.03
2019-05-04T22:19:45.220Z,98691.27
2019-05-04T22:22:11.957Z,98691.27
2019-05-04T22:24:38.762Z,98698.53
2019-05-04T22:27:05.555Z,98698.12
2019-05-04T22:29:32.295Z,98700.44
2019-05-04T22:31:59.035Z,98705.82
2019-05-04T22:34:26.452Z,98712.80
2019-05-04T22:37:05.226Z,98702.16
2019-05-04T22:39:31.605Z,98702.16
2019-05-04T22:41:58.342Z,98720.02
2019-05-04T22:44:26.267Z,98716.47
2019-05-04T22:46:54.646Z,98717.94
2019-05-04T22:49:21.680Z,98722.78
2019-05-04T22:51:49.509Z,98719.23
2019-05-04T22:54:39.600Z,98720.33
2019-05-04T22:57:09.777Z,98730.12
2019-05-04T22:59:38.485Z,98730.54
2019-05-04T23:02:15.123Z,98732.73
2019-05-04T23:04:44.599Z,98737.55
2019-05-04T23:07:11.325Z,98737.66
2019-05-04T23:09:38.469Z,98734.38
2019-05-04T23:12:05.508Z,98734.38
2019-05-04T23:14:34.690Z,98740.17
2019-05-04T23:17:01.344Z,98742.05
2019-05-04T23:19:28.115Z,98740.23
2019-05-04T23:21:54.857Z,98738.41
2019-05-04T23:24:21.622Z,98750.25
2019-05-04T23:26:48.383Z,98749.50
2019-05-04T23:29:17.103Z,98749.50
2019-05-04T23:31:45.321Z,98754.05
2019-05-04T23:34:12.616Z,98754.05
2019-05-04T23:36:39.405Z,98754.20
2019-05-04T23:39:09.041Z,98754.20
2019-05-04T23:41:35.774Z,98759.29
2019-05-04T23:44:04.466Z,98754.00
2019-05-04T23:46:38.848Z,98763.73
2019-05-04T23:49:15.698Z,98763.73
2019-05-04T23:51:34.517Z,98759.64
2019-05-04T23:54:01.320Z,98782.44
2019-05-04T23:56:28.338Z,98757.56
2019-05-04T23:59:07.509Z,98764.52
